KTUP/TUP METAR and TAF weather

Enter ICAO airport designator
Station Type Date Time Source
KTUP METAR 2019/02/17 15:18 UTC NOAA

KTUP 171518Z 19004KT 1 1/2SM BR OVC002 12/11 A2979 RMK AO2 T01170106 $


Station Type Date Time Source
KTUP Decoded METAR 2019/02/17 15:18 UTC NOAA

TUPELO REGIONAL AIRPORT, MS, United States (KTUP) 34-16N 88-46W 105M
Feb 17, 2019 - 10:18 AM EST / 2019.02.17 1518 UTC
Wind: from the S (190 degrees) at 5 MPH (4 KT):0
Visibility: 1 1/2 mile(s):0
Sky conditions: overcast
Weather: mist
Temperature: 53.1 F (11.7 C)
Dew Point: 51.1 F (10.6 C)
Relative Humidity: 92%
Pressure (altimeter): 29.79 in. Hg (1008 hPa)
ob: KTUP 171518Z 19004KT 1 1/2SM BR OVC002 12/11 A2979 RMK AO2 T01170106
cycle: 15

Station Type Date Time Source
KTUP TAF 2019/02/17 12:30 UTC NOAA

TAF KTUP 171127Z 1712/1812 16007KT 4SM -SHRA OVC008
TEMPO 1712/1716 2SM -SHRA BR OVC004
FM171900 35006KT 5SM -SHRA OVC009
FM180000 01009KT P6SM BKN015
FM180400 02009KT P6SM SCT030 BKN250


Example: see airport list